Time;durP1;ratioP1;P1;durP2;ratioP2;P2;SDS_P1;SDS_P2;PMS_P1;PMS_P2;Temp;Humidity;BMP_temperature;BMP_pressure;BME280_temperature;BME280_humidity;BME280_pressure;Samples;Min_cycle;Max_cycle;Signal;HPM_P1;HPM_P2
2022/01/25 00:33:27;;;;;;;60.35;41.35;;;;;;;1.82;92.59;103230.84;5073082;28;20455;-88
2022/01/25 00:35:52;;;;;;;60.75;40.25;;;;;;;1.91;92.59;103248.13;5072875;28;20472;-88
2022/01/25 00:38:18;;;;;;;56.95;38.28;;;;;;;2.25;93.27;103303.03;5038178;28;20040;-87
2022/01/25 00:40:44;;;;;;;58.17;39.95;;;;;;;2.23;93.00;103296.91;5054949;28;20056;-88
2022/01/25 00:43:12;;;;;;;58.72;40.60;;;;;;;2.16;92.52;103276.84;5054612;28;20047;-88
2022/01/25 00:45:41;;;;;;;58.15;39.65;;;;;;;1.93;92.62;103232.81;5054533;28;20173;-88
2022/01/25 00:48:09;;;;;;;54.17;37.67;;;;;;;2.35;93.12;103300.63;5054313;28;20035;-88
2022/01/25 00:50:40;;;;;;;54.65;37.65;;;;;;;2.21;92.66;103271.19;5054389;28;20403;-88
2022/01/25 00:55:33;;;;;;;59.72;39.63;;;;;;;2.34;93.45;103287.31;5054478;28;20036;-87
2022/01/25 00:58:00;;;;;;;57.85;39.40;;;;;;;2.16;93.08;103265.28;5054693;28;20050;-87
2022/01/25 01:00:26;;;;;;;58.63;39.55;;;;;;;2.38;93.01;103288.84;5054409;28;20037;-88
2022/01/25 01:02:53;;;;;;;58.08;39.08;;;;;;;1.99;92.93;103220.84;5055053;28;20037;-88
2022/01/25 01:05:19;;;;;;;57.15;39.42;;;;;;;2.25;92.84;103268.19;5054345;28;20043;-88
2022/01/25 01:07:44;;;;;;;60.08;39.17;;;;;;;2.34;92.92;103276.59;5054553;28;20021;-88
2022/01/25 01:10:15;;;;;;;59.42;40.03;;;;;;;1.90;93.32;103208.91;5054513;28;20062;-88
2022/01/25 01:15:51;;;;;;;59.20;39.22;;;;;;;2.25;93.13;103262.00;5052002;28;20369;-88
2022/01/25 01:32:17;;;;;;;55.55;37.97;;;;;;;2.29;92.59;103255.47;5076937;28;20045;-88
2022/01/25 01:37:47;;;;;;;53.08;37.20;;;;;;;2.54;92.10;103304.75;5076175;28;20079;-87
2022/01/25 01:43:03;;;;;;;54.65;36.72;;;;;;;2.58;92.02;103306.25;5060274;28;20115;-87
2022/01/25 01:45:45;;;;;;;55.80;36.22;;;;;;;2.37;92.10;103279.06;5059641;28;20028;-88
2022/01/25 01:48:16;;;;;;;55.43;38.07;;;;;;;2.40;92.29;103278.88;5042667;28;20036;-87
2022/01/25 01:50:42;;;;;;;52.38;35.63;;;;;;;2.56;92.85;103303.69;5058654;28;20028;-87
2022/01/25 01:53:08;;;;;;;56.40;37.80;;;;;;;2.50;92.28;103304.09;5040941;28;20032;-87
2022/01/25 01:55:35;;;;;;;53.75;36.72;;;;;;;2.19;92.27;103246.31;5057653;28;20056;-88
2022/01/25 01:58:02;;;;;;;56.90;37.72;;;;;;;2.18;93.02;103244.59;5040837;28;20051;-87
2022/01/25 02:00:41;;;;;;;52.30;36.67;;;;;;;2.55;93.13;103306.47;5075452;28;20043;-88
2022/01/25 02:03:07;;;;;;;57.35;37.10;;;;;;;2.21;92.97;103252.44;5075513;28;20120;-88
2022/01/25 02:05:33;;;;;;;54.90;37.30;;;;;;;2.19;93.19;103246.31;5040961;28;20528;-88
2022/01/25 02:08:00;;;;;;;52.15;35.78;;;;;;;2.56;92.59;103306.38;5040642;28;20128;-88
2022/01/25 02:10:25;;;;;;;53.25;35.42;;;;;;;2.52;92.55;103294.13;5057643;28;20031;-88
2022/01/25 02:12:52;;;;;;;56.67;35.90;;;;;;;2.54;92.82;103292.22;5075575;28;20036;-89
2022/01/25 02:15:21;;;;;;;57.08;36.70;;;;;;;2.35;92.58;103263.09;5040696;28;20115;-88
2022/01/25 02:23:34;;;;;;;52.10;36.10;;;;;;;2.48;92.77;103279.22;5060201;28;20205;-88
2022/01/25 02:26:01;;;;;;;56.58;38.05;;;;;;;2.41;92.73;103276.09;5055932;28;20123;-88
2022/01/25 02:28:33;;;;;;;57.65;38.10;;;;;;;2.25;93.02;103246.75;5056912;28;20408;-88
2022/01/25 02:31:00;;;;;;;54.13;37.60;;;;;;;2.31;92.83;103261.59;5056582;28;20480;-88
2022/01/25 02:33:26;;;;;;;57.85;38.67;;;;;;;2.05;93.08;103215.09;5074852;28;20031;-88
2022/01/25 02:35:56;;;;;;;54.67;37.60;;;;;;;2.30;93.01;103250.97;5057014;28;20052;-88
2022/01/25 02:38:25;;;;;;;58.83;38.20;;;;;;;2.10;93.58;103221.84;5057055;28;20481;-88
2022/01/25 02:40:51;;;;;;;58.67;37.33;;;;;;;2.32;93.79;103249.03;5057053;28;20626;-87
2022/01/25 02:43:26;;;;;;;55.53;37.72;;;;;;;2.49;94.09;103270.22;5074931;28;20032;-88
2022/01/25 02:48:59;;;;;;;54.45;37.55;;;;;;;2.16;93.79;103204.53;5074511;28;20033;-88
2022/01/25 02:51:38;;;;;;;52.75;36.63;;;;;;;2.34;93.49;103218.50;5056665;28;20111;-88
2022/01/25 02:54:07;;;;;;;54.90;36.65;;;;;;;2.44;93.71;103240.19;5074931;28;20032;-88
2022/01/25 02:56:39;;;;;;;56.83;38.58;;;;;;;2.29;93.54;103212.63;5040341;28;20016;-87
2022/01/25 02:59:06;;;;;;;58.78;39.75;;;;;;;2.44;93.36;103230.31;5074413;28;20025;-88
2022/01/25 03:01:33;;;;;;;57.85;39.17;;;;;;;2.18;93.13;103188.34;5056678;28;20028;-88
2022/01/25 03:04:02;;;;;;;61.17;40.75;;;;;;;2.23;93.24;103210.31;5056835;28;20560;-88
2022/01/25 03:06:28;;;;;;;59.97;39.47;;;;;;;2.51;93.32;103237.94;5073908;28;20905;-88
2022/01/25 03:08:54;;;;;;;58.28;39.28;;;;;;;2.65;93.87;103258.47;5039974;28;20099;-88
2022/01/25 03:11:24;;;;;;;55.33;38.20;;;;;;;2.63;93.59;103255.91;5056662;28;20401;-88
2022/01/25 03:13:56;;;;;;;59.78;39.90;;;;;;;2.25;93.22;103193.19;5056610;28;20025;-88
2022/01/25 03:16:34;;;;;;;60.72;41.17;;;;;;;2.66;93.07;103249.44;5056276;28;20012;-88
2022/01/25 03:19:26;;;;;;;62.92;41.92;;;;;;;2.33;93.23;103195.34;5074293;28;20034;-87
2022/01/25 03:21:48;;;;;;;68.97;44.42;;;;;;;2.63;92.59;103239.81;5073615;28;20095;-88
2022/01/25 03:24:14;;;;;;;68.68;45.10;;;;;;;2.51;92.39;103217.38;5039015;28;20433;-88
2022/01/25 03:26:39;;;;;;;69.38;45.13;;;;;;;2.45;92.65;103205.25;5039176;28;20094;-88
2022/01/25 03:29:07;;;;;;;61.92;41.22;;;;;;;2.52;93.10;103208.34;5056265;28;20025;-88
2022/01/25 03:31:33;;;;;;;57.30;39.40;;;;;;;2.60;92.90;103222.09;5039990;28;20070;-88
2022/01/25 03:33:59;;;;;;;59.00;38.92;;;;;;;2.77;93.08;103257.63;5055960;28;20028;-87
2022/01/25 03:36:24;;;;;;;63.38;42.55;;;;;;;2.35;93.15;103173.81;5055775;28;20020;-88
2022/01/25 03:38:52;;;;;;;65.25;43.63;;;;;;;2.35;92.82;103172.00;5038968;28;20024;-87
2022/01/25 03:41:19;;;;;;;67.45;43.88;;;;;;;2.61;92.26;103215.78;5055632;28;20052;-88
2022/01/25 03:43:51;;;;;;;64.63;42.70;;;;;;;2.76;92.83;103240.69;5073984;28;20056;-88
2022/01/25 03:46:25;;;;;;;66.03;42.70;;;;;;;2.37;92.62;103158.50;5055660;28;20472;-87
2022/01/25 03:51:36;;;;;;;72.53;46.20;;;;;;;2.51;91.94;103193.25;5073862;28;20090;-88
2022/01/25 03:54:05;;;;;;;65.10;42.03;;;;;;;2.83;92.29;103241.13;5055409;28;20028;-88
2022/01/25 03:56:31;;;;;;;62.47;42.30;;;;;;;2.70;92.37;103218.78;5056075;28;20028;-87
2022/01/25 03:58:57;;;;;;;64.85;43.40;;;;;;;2.38;92.34;103170.94;5055576;28;20025;-88
2022/01/25 04:01:23;;;;;;;62.13;41.00;;;;;;;2.57;92.16;103197.31;5055799;28;20040;-88
2022/01/25 04:03:57;;;;;;;59.22;39.40;;;;;;;2.86;92.59;103248.09;5039125;28;20035;-87
2022/01/25 04:06:24;;;;;;;61.33;40.17;;;;;;;2.70;92.46;103230.41;5040170;28;20523;-88
2022/01/25 04:08:49;;;;;;;62.78;40.97;;;;;;;2.83;91.97;103251.00;5038488;28;20063;-87
2022/01/25 04:11:15;;;;;;;63.78;40.88;;;;;;;2.46;91.71;103179.31;5055313;28;20052;-88
2022/01/25 04:13:40;;;;;;;59.35;38.47;;;;;;;2.45;91.79;103181.13;5055041;28;20382;-88
2022/01/25 04:16:14;;;;;;;57.47;38.17;;;;;;;2.71;92.19;103226.72;5054649;28;20028;-87
2022/01/25 04:18:58;;;;;;;55.80;37.70;;;;;;;2.73;91.98;103229.31;5055014;28;20395;-87
2022/01/25 04:26:45;;;;;;;56.53;37.13;;;;;;;2.54;92.47;103194.84;5072799;28;20078;-88
2022/01/25 04:29:11;;;;;;;55.63;36.93;;;;;;;2.56;92.08;103199.16;5055205;28;20420;-88
2022/01/25 04:31:37;;;;;;;57.22;38.58;;;;;;;2.83;92.51;103251.00;5054913;28;20306;-88
2022/01/25 04:50:56;;;;;;;54.92;37.05;;;;;;;2.57;93.10;103197.31;5071956;28;20078;-88
2022/01/25 04:56:37;;;;;;;59.60;37.95;;;;;;;2.46;92.70;103171.25;4979468;28;20043;-87
2022/01/25 05:01:56;;;;;;;59.30;39.00;;;;;;;2.70;92.19;103210.75;5038832;28;20374;-87
2022/01/25 05:04:27;;;;;;;58.25;38.40;;;;;;;2.72;92.12;103204.31;5038319;28;20024;-87
2022/01/25 05:07:04;;;;;;;57.28;39.15;;;;;;;2.69;92.19;103201.84;5054098;28;20033;-87
2022/01/25 05:09:32;;;;;;;58.90;38.83;;;;;;;2.70;91.91;103206.25;5055215;28;20554;-87
2022/01/25 05:11:58;;;;;;;60.63;39.35;;;;;;;2.44;91.99;103166.00;5038014;28;20477;-87
2022/01/25 05:14:31;;;;;;;61.83;39.78;;;;;;;2.82;91.89;103220.66;5054101;28;20024;-87
2022/01/25 05:17:00;;;;;;;56.33;38.38;;;;;;;2.34;92.57;103142.63;5054211;28;20028;-87
2022/01/25 05:22:07;;;;;;;62.73;39.67;;;;;;;2.73;92.74;103206.06;5072087;28;20074;-88
2022/01/25 05:24:40;;;;;;;58.33;38.17;;;;;;;2.45;92.44;103157.00;5039234;28;20455;-88
2022/01/25 05:27:11;;;;;;;60.78;37.97;;;;;;;2.73;92.80;103197.13;5054072;28;20395;-88
2022/01/25 05:29:37;;;;;;;59.75;38.88;;;;;;;2.89;92.68;103224.59;5072083;28;20042;-88
2022/01/25 05:32:03;;;;;;;57.33;37.55;;;;;;;2.88;92.58;103222.03;5072067;28;20024;-87
2022/01/25 05:34:32;;;;;;;62.17;39.65;;;;;;;2.83;92.70;103211.63;5071869;28;20036;-88
2022/01/25 05:36:58;;;;;;;57.78;38.08;;;;;;;2.69;92.75;103193.81;5037717;28;20024;-88
2022/01/25 05:39:34;;;;;;;61.08;38.78;;;;;;;2.74;92.83;103204.22;5037434;28;20032;-87
2022/01/25 05:47:19;;;;;;;56.33;38.08;;;;;;;2.66;92.64;103180.63;5039798;28;20039;-88
2022/01/25 05:49:47;;;;;;;59.13;38.60;;;;;;;2.88;93.10;103216.66;5054529;28;20060;-88
2022/01/25 05:52:13;;;;;;;60.67;38.35;;;;;;;2.79;92.66;103208.31;5038169;28;20036;-88
2022/01/25 05:54:40;;;;;;;61.55;40.88;;;;;;;2.91;92.67;103225.38;5038008;28;20040;-88
2022/01/25 05:57:09;;;;;;;61.35;37.95;;;;;;;2.52;92.47;103157.44;5055001;28;20035;-88
2022/01/25 05:59:37;;;;;;;59.22;39.38;;;;;;;2.74;92.73;103188.13;5037990;28;20041;-88
2022/01/25 06:02:03;;;;;;;61.55;38.47;;;;;;;2.79;92.68;103194.00;5060231;28;20530;-88
2022/01/25 06:04:29;;;;;;;58.85;38.33;;;;;;;2.86;92.85;103202.50;5060755;28;20576;-88
2022/01/25 06:06:54;;;;;;;62.83;38.67;;;;;;;2.55;92.85;103148.34;5043062;28;20040;-89
2022/01/25 06:09:20;;;;;;;60.97;40.20;;;;;;;2.52;92.77;103159.28;5043146;28;20142;-88
2022/01/25 06:11:45;;;;;;;59.25;39.13;;;;;;;2.83;93.05;103203.56;5064206;28;20064;-88
2022/01/25 06:14:11;;;;;;;62.72;38.75;;;;;;;2.79;93.09;103199.38;5049247;28;20480;-89
2022/01/25 06:16:36;;;;;;;57.70;37.30;;;;;;;2.56;93.23;103152.75;5065986;28;20119;-90
2022/01/25 06:22:24;;;;;;;59.05;38.95;;;;;;;2.52;92.91;103146.72;5086954;28;20058;-91
2022/01/25 06:24:49;;;;;;;60.75;38.55;;;;;;;2.58;92.87;103161.53;5062934;28;20119;-90
2022/01/25 06:27:15;;;;;;;66.65;39.55;;;;;;;2.57;92.73;103149.06;5044504;28;20064;-91
2022/01/25 06:29:41;;;;;;;64.90;40.67;;;;;;;2.99;92.61;103217.63;5060881;28;20111;-91
2022/01/25 06:32:09;;;;;;;63.55;40.95;;;;;;;2.57;92.29;103149.06;5045068;28;20029;-90
2022/01/25 06:34:34;;;;;;;61.58;39.88;;;;;;;2.53;92.78;103145.75;5060597;28;20032;-91
2022/01/25 06:37:00;;;;;;;63.75;40.08;;;;;;;2.97;93.08;103224.09;5044928;28;20020;-91
2022/01/25 06:39:25;;;;;;;65.97;41.65;;;;;;;2.72;92.55;103187.41;5044320;28;20036;-91
2022/01/25 06:41:53;;;;;;;69.78;44.03;;;;;;;2.42;92.19;103142.97;5061699;28;20044;-91
2022/01/25 06:44:26;;;;;;;69.38;43.30;;;;;;;2.47;92.58;103151.56;5045142;28;20039;-91
2022/01/25 06:46:53;;;;;;;69.93;41.15;;;;;;;2.95;93.14;103221.50;5060836;28;20039;-90
2022/01/25 06:49:24;;;;;;;69.40;42.10;;;;;;;2.51;92.88;103155.75;5060004;28;20040;-90
2022/01/25 06:51:50;;;;;;;64.72;41.42;;;;;;;2.55;93.20;103159.91;5060181;28;20040;-91
2022/01/25 06:54:15;;;;;;;69.80;41.90;;;;;;;2.97;92.51;103227.63;5060812;28;20017;-91
2022/01/25 06:56:44;;;;;;;66.20;41.50;;;;;;;2.60;92.44;103155.09;5061425;28;20024;-91
2022/01/25 06:59:09;;;;;;;67.07;42.75;;;;;;;2.85;92.55;103196.31;5043607;28;20032;-90
2022/01/25 07:01:35;;;;;;;69.45;43.05;;;;;;;2.69;92.26;103179.53;5060409;28;20035;-91
2022/01/25 07:04:01;;;;;;;73.95;44.65;;;;;;;2.74;92.73;103183.63;5062828;28;20107;-91
2022/01/25 07:06:27;;;;;;;70.13;43.83;;;;;;;2.64;92.37;103174.50;5061869;28;20052;-91
2022/01/25 07:09:00;;;;;;;65.88;42.42;;;;;;;3.02;92.90;103239.84;5063128;28;20028;-89
2022/01/25 07:11:30;;;;;;;70.60;43.55;;;;;;;2.89;92.84;103216.56;5044200;28;20063;-89
2022/01/25 07:14:09;;;;;;;63.20;40.22;;;;;;;2.60;92.55;103181.06;5042497;28;20036;-91
2022/01/25 07:16:40;;;;;;;67.45;42.08;;;;;;;2.59;92.86;103180.19;5061041;28;20471;-91
2022/01/25 07:19:17;;;;;;;69.50;42.57;;;;;;;2.77;93.02;103202.16;5059970;28;20444;-91
2022/01/25 07:21:50;;;;;;;74.22;45.17;;;;;;;2.97;92.30;103242.84;5061832;28;20029;-91
2022/01/25 07:24:22;;;;;;;73.90;43.85;;;;;;;2.53;92.28;103159.16;5059177;28;20049;-90
2022/01/25 07:27:00;;;;;;;71.72;44.72;;;;;;;2.65;92.01;103167.34;5061111;28;20045;-91
2022/01/25 07:29:32;;;;;;;78.38;45.90;;;;;;;2.67;91.74;103174.28;5061190;28;20044;-90
2022/01/25 07:32:08;;;;;;;76.68;46.63;;;;;;;2.70;92.06;103168.72;5041276;28;20437;-91
2022/01/25 07:34:39;;;;;;;79.43;47.65;;;;;;;2.64;nan;103171.81;5060179;28;20037;-91
2022/01/25 07:37:09;;;;;;;81.38;47.85;;;;;;;2.74;90.30;103188.97;5059761;28;20036;-92
2022/01/25 07:39:53;;;;;;;;;;;;;;;;;;;;;
2022/01/25 07:42:40;;;;;;;82.75;48.83;;;;;;;3.17;89.65;103244.13;5059230;28;20111;-91
2022/01/25 07:45:11;;;;;;;83.35;48.67;;;;;;;2.76;89.14;103178.16;5060072;28;20425;-90
2022/01/25 07:47:38;;;;;;;85.78;50.33;;;;;;;2.87;89.93;103194.34;5058597;28;20108;-91
2022/01/25 07:50:12;;;;;;;85.47;49.40;;;;;;;3.01;88.87;103217.50;5056301;28;20029;-91
2022/01/25 07:52:46;;;;;;;84.03;49.60;;;;;;;2.90;88.20;103199.50;5055580;28;20374;-91
2022/01/25 07:55:16;;;;;;;82.68;48.42;;;;;;;2.74;88.35;103185.44;5055523;28;20031;-91
2022/01/25 07:57:45;;;;;;;80.15;47.40;;;;;;;2.80;88.33;103190.38;5055967;28;20031;-91
2022/01/25 08:00:15;;;;;;;82.63;50.05;;;;;;;2.84;87.74;103183.00;5056549;28;20031;-92
2022/01/25 08:02:51;;;;;;;80.65;49.33;;;;;;;3.14;87.63;103228.25;5056152;28;20025;-90
2022/01/25 08:05:20;;;;;;;81.28;48.40;;;;;;;2.90;86.67;103182.56;5057438;28;20400;-90
2022/01/25 08:07:47;;;;;;;77.05;49.08;;;;;;;3.10;86.73;103206.16;5056887;28;20499;-90
2022/01/25 08:10:13;;;;;;;79.32;48.08;;;;;;;3.32;86.33;103243.06;5039556;28;20064;-90
2022/01/25 08:12:39;;;;;;;80.20;48.83;;;;;;;3.34;86.73;103246.50;5039364;28;20033;-90
2022/01/25 08:15:16;;;;;;;86.25;51.05;;;;;;;3.35;86.32;103244.66;5053587;28;20584;-90
2022/01/25 08:17:44;;;;;;;77.82;48.67;;;;;;;2.96;85.87;103179.44;5054817;28;20131;-90
2022/01/25 08:20:13;;;;;;;80.35;49.28;;;;;;;2.97;86.19;103170.44;5055607;28;20112;-90
2022/01/25 08:22:40;;;;;;;84.25;50.33;;;;;;;2.98;86.27;103183.75;5056049;28;20409;-90
2022/01/25 08:25:06;;;;;;;89.85;54.08;;;;;;;3.32;86.12;103234.13;5053612;28;20400;-90
2022/01/25 08:27:32;;;;;;;81.30;49.25;;;;;;;3.39;85.30;103242.63;5036031;28;20448;-90
2022/01/25 08:29:57;;;;;;;84.22;49.95;;;;;;;3.00;85.21;103180.97;5036090;28;20025;-90
2022/01/25 08:32:52;;;;;;;86.38;51.25;;;;;;;3.49;85.65;103257.09;5053086;28;20025;-90
2022/01/25 08:35:20;;;;;;;89.50;51.40;;;;;;;3.05;84.61;103189.53;5055288;28;20024;-89
2022/01/25 08:37:49;;;;;;;89.85;53.35;;;;;;;3.05;84.13;103189.53;5055182;28;20020;-91
2022/01/25 08:40:14;;;;;;;88.05;52.58;;;;;;;3.11;84.10;103197.13;5054762;28;20032;-91
2022/01/25 08:42:41;;;;;;;85.88;53.03;;;;;;;3.09;83.89;103193.72;5037315;28;20029;-91
2022/01/25 08:45:11;;;;;;;85.35;52.50;;;;;;;3.26;83.66;103207.75;5052190;28;20076;-91
2022/01/25 08:47:37;;;;;;;88.93;53.83;;;;;;;3.53;82.61;103253.25;5035885;28;20060;-90
2022/01/25 08:50:08;;;;;;;88.72;53.90;;;;;;;3.56;82.63;103258.38;5051910;28;20474;-90
2022/01/25 08:52:35;;;;;;;91.93;53.00;;;;;;;3.60;82.73;103253.66;5035700;28;20033;-91
2022/01/25 08:55:06;;;;;;;86.05;53.78;;;;;;;3.41;83.08;103214.72;5051902;28;20033;-90
2022/01/25 08:57:32;;;;;;;86.82;52.80;;;;;;;3.28;83.22;103195.09;5052213;28;20029;-90
2022/01/25 08:59:58;;;;;;;88.80;53.60;;;;;;;3.33;83.08;103204.50;5051926;28;20570;-90
2022/01/25 09:02:23;;;;;;;91.10;53.55;;;;;;;3.51;83.03;103222.94;5053444;28;20033;-91
2022/01/25 09:05:01;;;;;;;;;;;;;;;;;;;;;
2022/01/25 09:07:27;;;;;;;96.85;56.30;;;;;;;3.38;82.71;103196.16;5048221;28;20033;-90
2022/01/25 09:09:56;;;;;;;100.47;58.10;;;;;;;3.56;82.37;103220.81;5052533;28;20035;-91
2022/01/25 09:12:22;;;;;;;102.55;58.35;;;;;;;3.56;81.80;103218.13;5051928;28;20079;-90
2022/01/25 09:14:47;;;;;;;98.82;59.00;;;;;;;3.64;81.78;103233.66;5052534;28;20037;-90
2022/01/25 09:17:14;;;;;;;101.35;60.10;;;;;;;3.44;81.71;103201.06;5035384;28;20035;-86
2022/01/25 09:19:39;;;;;;;102.10;62.08;;;;;;;3.74;81.93;103236.56;5050717;28;20052;-87
2022/01/25 09:22:10;;;;;;;101.70;60.42;;;;;;;3.93;81.08;103266.47;5030367;28;20065;-88
2022/01/25 09:24:37;;;;;;;102.38;61.00;;;;;;;3.69;80.76;103215.38;5031078;28;20095;-91
2022/01/25 09:27:08;;;;;;;104.68;61.38;;;;;;;3.57;80.76;103198.34;5033171;28;20409;-90
2022/01/25 09:29:34;;;;;;;108.35;63.10;;;;;;;3.83;80.42;103238.56;5051427;28;20094;-90
2022/01/25 09:32:06;;;;;;;109.30;63.80;;;;;;;3.91;80.21;103240.66;5051160;28;20385;-89
2022/01/25 09:34:34;;;;;;;101.43;59.90;;;;;;;3.94;80.16;103246.69;5051345;28;20555;-89
2022/01/25 09:37:03;;;;;;;111.97;65.38;;;;;;;4.18;80.21;103267.34;5054532;28;20753;-89
2022/01/25 09:39:29;;;;;;;109.80;64.15;;;;;;;3.84;79.43;103208.06;5035227;28;20037;-90
2022/01/25 09:42:00;;;;;;;111.30;63.92;;;;;;;4.29;79.72;103266.53;5002217;28;20033;-89
2022/01/25 09:44:26;;;;;;;110.07;62.70;;;;;;;4.34;79.22;103273.28;5019107;28;20040;-90
2022/01/25 09:46:57;;;;;;;125.45;73.38;;;;;;;4.00;79.32;103224.75;5034752;28;20025;-90
2022/01/25 09:49:23;;;;;;;109.28;63.95;;;;;;;3.98;78.62;103204.34;5020451;28;20021;-89
2022/01/25 09:51:50;;;;;;;113.63;66.00;;;;;;;4.04;78.39;103202.06;5034909;28;20034;-90
2022/01/25 09:54:18;;;;;;;111.18;66.03;;;;;;;4.43;78.15;103282.50;5018637;28;20072;-90
2022/01/25 09:56:44;;;;;;;110.60;65.82;;;;;;;4.03;78.04;103213.78;5051595;28;20017;-89
2022/01/25 09:59:09;;;;;;;113.45;66.03;;;;;;;4.10;78.24;103219.53;5047510;28;20465;-90
2022/01/25 10:01:37;;;;;;;115.40;66.65;;;;;;;4.35;78.51;103266.06;5038213;28;20044;-90
2022/01/25 10:04:25;;;;;;;109.90;64.20;;;;;;;4.14;77.94;103214.81;5038321;28;20389;-90
2022/01/25 10:06:51;;;;;;;109.40;66.28;;;;;;;4.47;77.89;103269.66;5053687;28;20035;-90
2022/01/25 10:09:19;;;;;;;105.75;64.05;;;;;;;4.32;77.71;103242.13;5054767;28;20093;-89
2022/01/25 10:11:49;;;;;;;104.55;62.08;;;;;;;4.49;77.34;103259.69;5054376;28;20043;-90
2022/01/25 10:14:15;;;;;;;98.65;61.30;;;;;;;4.31;77.24;103229.66;5038349;28;20028;-89
2022/01/25 10:16:43;;;;;;;105.50;62.70;;;;;;;4.46;76.96;103243.75;5037247;28;20035;-90
2022/01/25 10:19:13;;;;;;;99.65;59.63;;;;;;;4.37;76.74;103221.09;5056423;28;20025;-89
2022/01/25 10:21:48;;;;;;;99.55;60.28;;;;;;;4.61;77.02;103261.41;5055761;28;20033;-89
2022/01/25 10:24:19;;;;;;;98.28;59.25;;;;;;;4.70;76.55;103262.56;5054191;28;20049;-89
2022/01/25 10:26:56;;;;;;;97.47;61.40;;;;;;;4.61;76.85;103241.75;5053954;28;20037;-89
2022/01/25 10:29:29;;;;;;;96.38;59.65;;;;;;;4.72;76.60;103253.41;5054266;28;20036;-90
2022/01/25 10:32:27;;;;;;;100.57;60.55;;;;;;;4.72;77.54;103220.25;5055075;28;20044;-91
2022/01/25 10:35:00;;;;;;;101.15;60.03;;;;;;;5.15;75.50;103286.00;5040452;28;20091;-92
2022/01/25 10:37:34;;;;;;;100.53;60.63;;;;;;;5.00;75.13;103262.00;5039045;28;20400;-92
2022/01/25 10:40:23;;;;;;;98.57;60.75;;;;;;;5.20;75.06;103291.91;5039345;28;20090;-92
2022/01/25 10:42:59;;;;;;;100.53;60.50;;;;;;;5.08;74.71;103267.66;5054163;28;20485;-92
2022/01/25 10:45:27;;;;;;;97.03;59.45;;;;;;;5.23;74.65;103281.75;5054704;28;20040;-93
2022/01/25 10:47:56;;;;;;;92.30;57.58;;;;;;;4.84;74.21;103203.19;5053439;28;20362;-90
2022/01/25 10:50:35;;;;;;;92.65;56.83;;;;;;;5.37;73.88;103282.50;5053827;28;20112;-89
2022/01/25 10:53:15;;;;;;;91.20;56.92;;;;;;;5.26;73.81;103273.44;5054057;28;20032;-89
2022/01/25 10:55:54;;;;;;;97.30;59.03;;;;;;;5.08;73.72;103229.13;5055618;28;20503;-90
2022/01/25 10:58:26;;;;;;;93.20;59.42;;;;;;;5.20;72.87;103241.63;5053918;28;20373;-90
2022/01/25 11:00:55;;;;;;;93.95;59.40;;;;;;;5.26;73.14;103248.34;5037551;28;20020;-90
2022/01/25 11:03:38;;;;;;;93.03;58.58;;;;;;;5.52;74.19;103273.22;5053377;28;20037;-90
2022/01/25 11:06:20;;;;;;;94.63;59.70;;;;;;;5.15;73.51;103218.72;5053839;28;20112;-89
2022/01/25 11:08:53;;;;;;;96.10;58.80;;;;;;;5.12;72.30;103213.59;5053500;28;20040;-90
2022/01/25 11:11:34;;;;;;;95.03;59.13;;;;;;;5.13;72.54;103210.78;5053680;28;20052;-90
2022/01/25 11:16:48;;;;;;;96.45;58.97;;;;;;;5.35;71.96;103231.47;5053919;28;20044;-89
2022/01/25 11:19:15;;;;;;;93.38;58.42;;;;;;;5.33;71.69;103236.13;5053369;28;20151;-89
2022/01/25 11:21:43;;;;;;;94.85;60.40;;;;;;;5.39;71.65;103248.25;5036919;28;20476;-90
2022/01/25 11:24:15;;;;;;;94.95;58.72;;;;;;;5.46;71.82;103254.81;5053060;28;20045;-89
2022/01/25 11:26:42;;;;;;;102.40;61.38;;;;;;;5.33;71.86;103230.75;5037051;28;20250;-90
2022/01/25 11:29:11;;;;;;;96.50;59.28;;;;;;;5.14;71.71;103217.88;5053747;28;20029;-90
2022/01/25 11:31:45;;;;;;;97.13;58.80;;;;;;;5.20;72.56;103222.78;5058957;28;20021;-90
2022/01/25 11:34:15;;;;;;;97.60;61.55;;;;;;;5.23;72.20;103222.53;5060125;28;20029;-90
2022/01/25 11:36:43;;;;;;;101.07;60.13;;;;;;;5.24;72.47;103218.88;5042271;28;20865;-90
2022/01/25 11:39:10;;;;;;;95.28;58.85;;;;;;;5.25;72.01;103220.56;5057966;28;20025;-90
2022/01/25 11:41:35;;;;;;;96.53;62.13;;;;;;;5.23;72.00;103217.16;5053388;28;20094;-90
2022/01/25 11:44:10;;;;;;;93.22;60.78;;;;;;;5.67;72.25;103281.91;5053170;28;20119;-90
2022/01/25 11:46:39;;;;;;;93.30;59.78;;;;;;;5.36;71.71;103243.97;5054044;28;20029;-90
2022/01/25 11:49:10;;;;;;;96.88;60.55;;;;;;;5.23;72.00;103222.53;5036432;28;20033;-90
2022/01/25 11:51:39;;;;;;;95.60;60.67;;;;;;;5.12;71.95;103217.13;5053352;28;20063;-90
2022/01/25 11:54:05;;;;;;;99.10;61.88;;;;;;;5.21;71.71;103234.38;5035640;28;20033;-90
2022/01/25 11:56:31;;;;;;;94.40;60.92;;;;;;;5.13;72.01;103216.16;5035621;28;20032;-89
2022/01/25 11:59:01;;;;;;;91.40;60.20;;;;;;;5.50;71.64;103285.06;5053670;28;20056;-89
2022/01/25 12:01:29;;;;;;;95.50;59.33;;;;;;;5.42;71.53;103258.78;5051957;28;20025;-89
2022/01/25 12:04:03;;;;;;;94.72;60.53;;;;;;;5.13;71.94;103209.94;5019326;28;20040;-89
2022/01/25 12:06:36;;;;;;;93.38;58.75;;;;;;;5.38;71.50;103239.28;5052661;28;20029;-90
2022/01/25 12:09:30;;;;;;;93.65;60.00;;;;;;;5.19;70.79;103204.91;5052154;28;20048;-89
2022/01/25 12:12:08;;;;;;;92.50;57.95;;;;;;;5.67;71.08;103267.56;5051736;28;20481;-89
2022/01/25 12:14:40;;;;;;;93.70;56.63;;;;;;;5.71;71.32;103267.19;5037361;28;20116;-89
2022/01/25 12:17:05;;;;;;;97.70;60.05;;;;;;;5.78;70.47;103264.88;5051998;28;20025;-89
2022/01/25 12:19:34;;;;;;;100.35;61.17;;;;;;;5.82;70.16;103260.06;5051813;28;20039;-89
2022/01/25 12:22:34;;;;;;;98.93;62.47;;;;;;;5.83;70.69;103261.78;5051716;28;20428;-89
2022/01/25 12:25:23;;;;;;;94.93;59.72;;;;;;;5.55;69.71;103224.50;5047960;28;20037;-89
2022/01/25 12:27:57;;;;;;;96.35;59.97;;;;;;;5.63;69.88;103259.72;5031614;28;20052;-89
2022/01/25 12:30:31;;;;;;;95.28;59.83;;;;;;;5.65;70.07;103265.00;5048395;28;20142;-89
2022/01/25 12:33:08;;;;;;;91.38;57.60;;;;;;;5.34;70.18;103201.97;5031465;28;20072;-89
2022/01/25 12:35:44;;;;;;;93.38;59.00;;;;;;;5.67;70.13;103241.50;5048264;28;20059;-89
2022/01/25 12:38:17;;;;;;;92.03;57.85;;;;;;;5.39;70.19;103183.63;5048078;28;20051;-89
2022/01/25 12:41:06;;;;;;;97.20;58.97;;;;;;;5.62;71.00;103212.25;5032353;28;20040;-89
2022/01/25 12:43:38;;;;;;;94.32;58.13;;;;;;;5.81;70.22;103245.75;5047875;28;20827;-89
2022/01/25 12:46:11;;;;;;;95.10;58.33;;;;;;;5.77;70.38;103230.81;5031551;28;20449;-89
2022/01/25 12:48:48;;;;;;;95.78;58.95;;;;;;;5.42;70.47;103178.84;5032174;28;20021;-89
2022/01/25 12:51:18;;;;;;;91.78;57.65;;;;;;;5.78;69.95;103243.31;5031686;28;20033;-89
2022/01/25 12:53:46;;;;;;;94.45;59.65;;;;;;;5.47;69.82;103183.00;5031384;28;20024;-89
2022/01/25 12:56:27;;;;;;;94.28;59.40;;;;;;;5.49;70.18;103167.56;5031522;28;20538;-89
2022/01/25 12:59:00;;;;;;;92.57;57.20;;;;;;;5.42;70.12;103168.06;5030709;28;20021;-89
2022/01/25 13:01:27;;;;;;;93.15;58.67;;;;;;;5.42;70.07;103172.63;5047877;28;20033;-89
2022/01/25 13:03:59;;;;;;;93.35;58.13;;;;;;;5.68;70.53;103202.78;5031340;28;20021;-89
2022/01/25 13:06:53;;;;;;;;;;;;;;;5.89;72.48;103221.75;5031616;28;20037;-89
2022/01/25 13:09:33;;;;;;;89.75;55.78;;;;;;;5.34;70.72;103148.13;5018323;28;20308;-89
2022/01/25 13:17:01;;;;;;;89.40;57.00;;;;;;;5.75;70.53;103205.84;5032195;28;20087;-89
2022/01/25 13:19:45;;;;;;;88.07;56.90;;;;;;;5.55;71.50;103161.69;5031431;28;20473;-89
2022/01/25 13:22:25;;;;;;;90.15;56.60;;;;;;;5.51;71.01;103177.25;5047836;28;20021;-88
2022/01/25 13:25:11;;;;;;;89.22;55.20;;;;;;;5.26;70.62;103128.06;5050153;28;20053;-88
2022/01/25 13:27:59;;;;;;;90.88;56.00;;;;;;;5.53;70.70;103169.03;5050899;28;20021;-88
2022/01/25 13:30:45;;;;;;;89.80;56.17;;;;;;;5.35;70.76;103137.25;5037307;28;20051;-88